sensor_id;sensor_type;location;lat;lon;timestamp;temperature;humidity
10300;DHT22;5195;48.562;9.192;2024-03-25T00:01:41;8.50;51.10
10300;DHT22;5195;48.562;9.192;2024-03-25T00:04:07;8.50;51.00
10300;DHT22;5195;48.562;9.192;2024-03-25T00:06:33;8.40;51.30
10300;DHT22;5195;48.562;9.192;2024-03-25T00:08:59;8.40;51.50
10300;DHT22;5195;48.562;9.192;2024-03-25T00:11:24;8.50;51.20
10300;DHT22;5195;48.562;9.192;2024-03-25T00:13:49;8.70;50.90
10300;DHT22;5195;48.562;9.192;2024-03-25T00:16:16;8.10;51.60
10300;DHT22;5195;48.562;9.192;2024-03-25T00:18:41;8.10;51.60
10300;DHT22;5195;48.562;9.192;2024-03-25T00:21:07;8.30;51.50
10300;DHT22;5195;48.562;9.192;2024-03-25T00:23:33;8.30;51.50
10300;DHT22;5195;48.562;9.192;2024-03-25T00:25:58;8.20;51.50
10300;DHT22;5195;48.562;9.192;2024-03-25T00:28:24;8.20;51.60
10300;DHT22;5195;48.562;9.192;2024-03-25T00:30:50;8.10;51.70
10300;DHT22;5195;48.562;9.192;2024-03-25T00:33:15;8.10;51.80
10300;DHT22;5195;48.562;9.192;2024-03-25T00:35:41;8.30;51.60
10300;DHT22;5195;48.562;9.192;2024-03-25T00:38:06;8.50;51.20
10300;DHT22;5195;48.562;9.192;2024-03-25T00:40:32;8.60;50.80
10300;DHT22;5195;48.562;9.192;2024-03-25T00:42:59;8.70;51.20
10300;DHT22;5195;48.562;9.192;2024-03-25T00:45:24;8.50;51.40
10300;DHT22;5195;48.562;9.192;2024-03-25T00:47:50;8.40;51.10
10300;DHT22;5195;48.562;9.192;2024-03-25T00:50:26;8.60;50.80
10300;DHT22;5195;48.562;9.192;2024-03-25T00:53:02;8.60;50.80
10300;DHT22;5195;48.562;9.192;2024-03-25T00:55:37;8.70;50.50
10300;DHT22;5195;48.562;9.192;2024-03-25T00:58:13;8.80;50.40
10300;DHT22;5195;48.562;9.192;2024-03-25T01:00:49;8.90;50.50
10300;DHT22;5195;48.562;9.192;2024-03-25T01:03:24;8.50;50.60
10300;DHT22;5195;48.562;9.192;2024-03-25T01:06:00;8.10;51.30
10300;DHT22;5195;48.562;9.192;2024-03-25T01:08:37;8.10;51.60
10300;DHT22;5195;48.562;9.192;2024-03-25T01:11:12;8.00;51.80
10300;DHT22;5195;48.562;9.192;2024-03-25T01:13:48;8.10;51.90
10300;DHT22;5195;48.562;9.192;2024-03-25T01:16:23;8.30;51.60
10300;DHT22;5195;48.562;9.192;2024-03-25T01:18:59;8.20;51.60
10300;DHT22;5195;48.562;9.192;2024-03-25T01:21:35;7.80;52.00
10300;DHT22;5195;48.562;9.192;2024-03-25T01:24:10;7.90;52.20
10300;DHT22;5195;48.562;9.192;2024-03-25T01:26:46;8.20;51.90
10300;DHT22;5195;48.562;9.192;2024-03-25T01:29:21;8.40;51.30
10300;DHT22;5195;48.562;9.192;2024-03-25T01:31:57;8.50;50.90
10300;DHT22;5195;48.562;9.192;2024-03-25T01:34:32;8.30;51.10
10300;DHT22;5195;48.562;9.192;2024-03-25T01:37:08;7.90;51.70
10300;DHT22;5195;48.562;9.192;2024-03-25T01:39:44;7.70;52.80
10300;DHT22;5195;48.562;9.192;2024-03-25T01:42:20;7.70;52.70
10300;DHT22;5195;48.562;9.192;2024-03-25T01:44:56;7.60;52.50
10300;DHT22;5195;48.562;9.192;2024-03-25T01:47:31;7.40;52.90
10300;DHT22;5195;48.562;9.192;2024-03-25T01:50:07;7.60;53.30
10300;DHT22;5195;48.562;9.192;2024-03-25T01:52:42;7.90;52.60
10300;DHT22;5195;48.562;9.192;2024-03-25T01:55:20;8.10;52.10
10300;DHT22;5195;48.562;9.192;2024-03-25T01:57:54;8.00;52.00
10300;DHT22;5195;48.562;9.192;2024-03-25T02:00:29;7.70;52.50
10300;DHT22;5195;48.562;9.192;2024-03-25T02:03:06;7.80;52.80
10300;DHT22;5195;48.562;9.192;2024-03-25T02:05:42;7.70;52.70
10300;DHT22;5195;48.562;9.192;2024-03-25T02:08:17;7.50;53.10
10300;DHT22;5195;48.562;9.192;2024-03-25T02:10:54;7.60;53.20
10300;DHT22;5195;48.562;9.192;2024-03-25T02:13:28;7.60;53.00
10300;DHT22;5195;48.562;9.192;2024-03-25T02:16:05;7.20;53.80
10300;DHT22;5195;48.562;9.192;2024-03-25T02:18:41;7.10;53.70
10300;DHT22;5195;48.562;9.192;2024-03-25T02:21:17;7.40;53.60
10300;DHT22;5195;48.562;9.192;2024-03-25T02:23:53;7.30;53.50
10300;DHT22;5195;48.562;9.192;2024-03-25T02:26:29;7.00;54.10
10300;DHT22;5195;48.562;9.192;2024-03-25T02:29:08;7.00;54.10
10300;DHT22;5195;48.562;9.192;2024-03-25T02:31:41;6.90;54.40
10300;DHT22;5195;48.562;9.192;2024-03-25T02:34:17;6.70;54.80
10300;DHT22;5195;48.562;9.192;2024-03-25T02:36:53;6.80;54.90
10300;DHT22;5195;48.562;9.192;2024-03-25T02:39:29;6.70;55.00
10300;DHT22;5195;48.562;9.192;2024-03-25T02:42:07;7.00;55.20
10300;DHT22;5195;48.562;9.192;2024-03-25T02:44:42;7.10;54.80
10300;DHT22;5195;48.562;9.192;2024-03-25T02:47:18;7.00;54.90
10300;DHT22;5195;48.562;9.192;2024-03-25T02:49:53;6.90;55.00
10300;DHT22;5195;48.562;9.192;2024-03-25T02:52:29;6.80;55.10
10300;DHT22;5195;48.562;9.192;2024-03-25T02:55:05;7.00;54.90
10300;DHT22;5195;48.562;9.192;2024-03-25T02:57:40;7.10;54.50
10300;DHT22;5195;48.562;9.192;2024-03-25T03:00:16;7.30;54.10
10300;DHT22;5195;48.562;9.192;2024-03-25T03:02:51;7.70;53.40
10300;DHT22;5195;48.562;9.192;2024-03-25T03:05:27;7.60;53.30
10300;DHT22;5195;48.562;9.192;2024-03-25T03:08:04;7.10;54.00
10300;DHT22;5195;48.562;9.192;2024-03-25T03:10:39;7.10;54.00
10300;DHT22;5195;48.562;9.192;2024-03-25T03:13:15;7.00;54.50
10300;DHT22;5195;48.562;9.192;2024-03-25T03:15:51;7.50;53.40
10300;DHT22;5195;48.562;9.192;2024-03-25T03:18:27;7.50;53.40
10300;DHT22;5195;48.562;9.192;2024-03-25T03:21:02;7.50;53.30
10300;DHT22;5195;48.562;9.192;2024-03-25T03:23:39;7.60;53.10
10300;DHT22;5195;48.562;9.192;2024-03-25T03:26:16;7.80;52.40
10300;DHT22;5195;48.562;9.192;2024-03-25T03:28:51;7.70;52.40
10300;DHT22;5195;48.562;9.192;2024-03-25T03:31:27;7.40;52.90
10300;DHT22;5195;48.562;9.192;2024-03-25T03:34:03;7.00;54.00
10300;DHT22;5195;48.562;9.192;2024-03-25T03:36:39;7.00;54.00
10300;DHT22;5195;48.562;9.192;2024-03-25T03:39:15;7.10;53.90
10300;DHT22;5195;48.562;9.192;2024-03-25T03:41:51;7.50;53.30
10300;DHT22;5195;48.562;9.192;2024-03-25T03:44:27;7.40;53.00
10300;DHT22;5195;48.562;9.192;2024-03-25T03:47:02;7.20;53.50
10300;DHT22;5195;48.562;9.192;2024-03-25T03:49:38;7.30;53.50
10300;DHT22;5195;48.562;9.192;2024-03-25T03:52:13;7.20;53.40
10300;DHT22;5195;48.562;9.192;2024-03-25T03:54:49;7.30;53.30
10300;DHT22;5195;48.562;9.192;2024-03-25T03:57:25;7.30;53.30
10300;DHT22;5195;48.562;9.192;2024-03-25T04:00:00;7.40;53.30
10300;DHT22;5195;48.562;9.192;2024-03-25T04:02:37;7.40;53.40
10300;DHT22;5195;48.562;9.192;2024-03-25T04:05:12;7.40;53.40
10300;DHT22;5195;48.562;9.192;2024-03-25T04:07:49;7.20;53.60
10300;DHT22;5195;48.562;9.192;2024-03-25T04:10:26;7.20;53.60
10300;DHT22;5195;48.562;9.192;2024-03-25T04:13:01;7.00;53.90
10300;DHT22;5195;48.562;9.192;2024-03-25T04:15:39;6.90;54.20
10300;DHT22;5195;48.562;9.192;2024-03-25T04:18:14;7.10;54.30
10300;DHT22;5195;48.562;9.192;2024-03-25T04:20:49;7.10;53.90
10300;DHT22;5195;48.562;9.192;2024-03-25T04:23:26;6.80;54.40
10300;DHT22;5195;48.562;9.192;2024-03-25T04:26:01;6.80;54.40
10300;DHT22;5195;48.562;9.192;2024-03-25T04:28:37;7.00;54.40
10300;DHT22;5195;48.562;9.192;2024-03-25T04:31:13;7.70;53.30
10300;DHT22;5195;48.562;9.192;2024-03-25T04:33:49;7.70;52.70
10300;DHT22;5195;48.562;9.192;2024-03-25T04:36:24;8.00;52.20
10300;DHT22;5195;48.562;9.192;2024-03-25T04:39:00;7.80;52.10
10300;DHT22;5195;48.562;9.192;2024-03-25T04:41:37;7.80;52.20
10300;DHT22;5195;48.562;9.192;2024-03-25T04:44:12;8.00;51.60
10300;DHT22;5195;48.562;9.192;2024-03-25T04:46:51;8.10;51.40
10300;DHT22;5195;48.562;9.192;2024-03-25T04:49:27;7.90;51.50
10300;DHT22;5195;48.562;9.192;2024-03-25T04:52:02;7.90;51.60
10300;DHT22;5195;48.562;9.192;2024-03-25T04:54:38;8.10;51.00
10300;DHT22;5195;48.562;9.192;2024-03-25T04:57:13;7.90;51.10
10300;DHT22;5195;48.562;9.192;2024-03-25T04:59:49;7.90;51.50
10300;DHT22;5195;48.562;9.192;2024-03-25T05:02:25;7.40;52.00
10300;DHT22;5195;48.562;9.192;2024-03-25T05:05:01;7.40;52.00
10300;DHT22;5195;48.562;9.192;2024-03-25T05:07:37;7.50;52.20
10300;DHT22;5195;48.562;9.192;2024-03-25T05:10:12;7.80;51.50
10300;DHT22;5195;48.562;9.192;2024-03-25T05:12:48;7.70;51.50
10300;DHT22;5195;48.562;9.192;2024-03-25T05:15:24;7.40;52.10
10300;DHT22;5195;48.562;9.192;2024-03-25T05:18:00;7.40;52.00
10300;DHT22;5195;48.562;9.192;2024-03-25T05:20:35;7.30;52.00
10300;DHT22;5195;48.562;9.192;2024-03-25T05:23:11;7.10;52.50
10300;DHT22;5195;48.562;9.192;2024-03-25T05:25:47;7.20;52.50
10300;DHT22;5195;48.562;9.192;2024-03-25T05:28:22;7.50;51.90
10300;DHT22;5195;48.562;9.192;2024-03-25T05:31:08;7.20;52.20
10300;DHT22;5195;48.562;9.192;2024-03-25T05:33:46;7.10;52.10
10300;DHT22;5195;48.562;9.192;2024-03-25T05:36:21;7.00;52.70
10300;DHT22;5195;48.562;9.192;2024-03-25T05:38:59;6.70;53.30
10300;DHT22;5195;48.562;9.192;2024-03-25T05:41:35;6.60;53.50
10300;DHT22;5195;48.562;9.192;2024-03-25T05:44:10;6.60;53.50
10300;DHT22;5195;48.562;9.192;2024-03-25T05:46:46;6.50;53.70
10300;DHT22;5195;48.562;9.192;2024-03-25T05:49:22;6.70;53.40
10300;DHT22;5195;48.562;9.192;2024-03-25T05:51:57;6.90;53.20
10300;DHT22;5195;48.562;9.192;2024-03-25T05:54:33;7.10;52.90
10300;DHT22;5195;48.562;9.192;2024-03-25T05:57:08;7.10;52.70
10300;DHT22;5195;48.562;9.192;2024-03-25T05:59:44;7.30;52.50
10300;DHT22;5195;48.562;9.192;2024-03-25T06:02:20;7.40;53.60
10300;DHT22;5195;48.562;9.192;2024-03-25T06:04:56;7.40;53.60
10300;DHT22;5195;48.562;9.192;2024-03-25T06:07:31;7.50;53.90
10300;DHT22;5195;48.562;9.192;2024-03-25T06:10:07;7.80;52.80
10300;DHT22;5195;48.562;9.192;2024-03-25T06:12:44;8.50;50.50
10300;DHT22;5195;48.562;9.192;2024-03-25T06:15:19;8.50;50.50
10300;DHT22;5195;48.562;9.192;2024-03-25T06:17:55;8.70;50.00
10300;DHT22;5195;48.562;9.192;2024-03-25T06:20:30;8.80;49.70
10300;DHT22;5195;48.562;9.192;2024-03-25T06:23:06;9.00;49.40
10300;DHT22;5195;48.562;9.192;2024-03-25T06:25:43;8.90;49.80
10300;DHT22;5195;48.562;9.192;2024-03-25T06:28:19;8.90;49.60
10300;DHT22;5195;48.562;9.192;2024-03-25T06:30:54;9.10;48.90
10300;DHT22;5195;48.562;9.192;2024-03-25T06:33:50;8.90;51.00
10300;DHT22;5195;48.562;9.192;2024-03-25T06:36:50;8.80;51.10
10300;DHT22;5195;48.562;9.192;2024-03-25T06:39:23;8.80;51.10
10300;DHT22;5195;48.562;9.192;2024-03-25T06:41:59;8.80;51.40
10300;DHT22;5195;48.562;9.192;2024-03-25T06:44:35;8.70;51.50
10300;DHT22;5195;48.562;9.192;2024-03-25T06:47:11;8.70;51.50
10300;DHT22;5195;48.562;9.192;2024-03-25T06:49:47;8.80;50.60
10300;DHT22;5195;48.562;9.192;2024-03-25T06:52:23;8.80;50.60
10300;DHT22;5195;48.562;9.192;2024-03-25T06:54:58;8.80;50.40
10300;DHT22;5195;48.562;9.192;2024-03-25T06:57:35;8.70;50.70
10300;DHT22;5195;48.562;9.192;2024-03-25T07:00:12;8.80;49.80
10300;DHT22;5195;48.562;9.192;2024-03-25T07:02:50;8.80;49.80
10300;DHT22;5195;48.562;9.192;2024-03-25T07:05:26;9.00;49.20
10300;DHT22;5195;48.562;9.192;2024-03-25T07:08:02;9.00;49.40
10300;DHT22;5195;48.562;9.192;2024-03-25T07:10:38;9.10;49.10
10300;DHT22;5195;48.562;9.192;2024-03-25T07:13:14;9.00;49.20
10300;DHT22;5195;48.562;9.192;2024-03-25T07:15:50;8.60;50.50
10300;DHT22;5195;48.562;9.192;2024-03-25T07:18:26;8.60;50.10
10300;DHT22;5195;48.562;9.192;2024-03-25T07:21:02;8.70;49.30
10300;DHT22;5195;48.562;9.192;2024-03-25T07:23:37;9.10;48.90
10300;DHT22;5195;48.562;9.192;2024-03-25T07:26:14;9.00;50.30
10300;DHT22;5195;48.562;9.192;2024-03-25T07:28:50;9.00;49.60
10300;DHT22;5195;48.562;9.192;2024-03-25T07:31:26;9.30;49.50
10300;DHT22;5195;48.562;9.192;2024-03-25T07:34:02;9.70;48.40
10300;DHT22;5195;48.562;9.192;2024-03-25T07:36:37;10.10;46.50
10300;DHT22;5195;48.562;9.192;2024-03-25T07:39:14;10.00;47.30
10300;DHT22;5195;48.562;9.192;2024-03-25T07:41:49;10.00;47.20
10300;DHT22;5195;48.562;9.192;2024-03-25T07:44:25;9.90;48.70
10300;DHT22;5195;48.562;9.192;2024-03-25T07:47:00;10.00;46.50
10300;DHT22;5195;48.562;9.192;2024-03-25T07:49:37;10.40;46.60
10300;DHT22;5195;48.562;9.192;2024-03-25T07:52:12;10.40;46.70
10300;DHT22;5195;48.562;9.192;2024-03-25T07:54:48;10.40;47.20
10300;DHT22;5195;48.562;9.192;2024-03-25T07:57:24;10.40;47.90
10300;DHT22;5195;48.562;9.192;2024-03-25T08:00:01;10.50;48.10
10300;DHT22;5195;48.562;9.192;2024-03-25T08:02:36;10.40;48.00
10300;DHT22;5195;48.562;9.192;2024-03-25T08:05:13;11.10;44.60
10300;DHT22;5195;48.562;9.192;2024-03-25T08:07:48;11.00;44.40
10300;DHT22;5195;48.562;9.192;2024-03-25T08:10:24;11.10;45.10
10300;DHT22;5195;48.562;9.192;2024-03-25T08:12:59;11.00;45.80
10300;DHT22;5195;48.562;9.192;2024-03-25T08:15:35;11.00;46.40
10300;DHT22;5195;48.562;9.192;2024-03-25T08:18:11;11.30;45.60
10300;DHT22;5195;48.562;9.192;2024-03-25T08:20:48;11.80;45.00
10300;DHT22;5195;48.562;9.192;2024-03-25T08:23:23;12.20;43.50
10300;DHT22;5195;48.562;9.192;2024-03-25T08:25:59;12.60;42.40
10300;DHT22;5195;48.562;9.192;2024-03-25T08:28:34;12.90;42.40
10300;DHT22;5195;48.562;9.192;2024-03-25T08:31:10;13.00;43.00
10300;DHT22;5195;48.562;9.192;2024-03-25T08:33:47;13.10;41.90
10300;DHT22;5195;48.562;9.192;2024-03-25T08:36:23;13.40;41.20
10300;DHT22;5195;48.562;9.192;2024-03-25T08:38:58;13.40;41.80
10300;DHT22;5195;48.562;9.192;2024-03-25T08:41:34;13.40;41.20
10300;DHT22;5195;48.562;9.192;2024-03-25T08:44:09;13.40;41.80
10300;DHT22;5195;48.562;9.192;2024-03-25T08:46:46;13.10;42.70
10300;DHT22;5195;48.562;9.192;2024-03-25T08:49:21;13.10;42.70
10300;DHT22;5195;48.562;9.192;2024-03-25T08:51:58;13.30;41.60
10300;DHT22;5195;48.562;9.192;2024-03-25T08:54:34;13.50;41.90
10300;DHT22;5195;48.562;9.192;2024-03-25T08:57:10;13.50;42.60
10300;DHT22;5195;48.562;9.192;2024-03-25T08:59:46;13.50;42.60
10300;DHT22;5195;48.562;9.192;2024-03-25T09:02:21;13.40;42.30
10300;DHT22;5195;48.562;9.192;2024-03-25T09:04:59;13.60;40.10
10300;DHT22;5195;48.562;9.192;2024-03-25T09:07:36;14.00;39.70
10300;DHT22;5195;48.562;9.192;2024-03-25T09:10:12;14.00;39.70
10300;DHT22;5195;48.562;9.192;2024-03-25T09:13:07;14.20;40.20
10300;DHT22;5195;48.562;9.192;2024-03-25T09:15:44;14.40;38.50
10300;DHT22;5195;48.562;9.192;2024-03-25T09:18:20;14.40;38.40
10300;DHT22;5195;48.562;9.192;2024-03-25T09:20:55;14.60;39.30
10300;DHT22;5195;48.562;9.192;2024-03-25T09:23:30;14.50;39.80
10300;DHT22;5195;48.562;9.192;2024-03-25T09:26:06;14.80;39.10
10300;DHT22;5195;48.562;9.192;2024-03-25T09:28:42;14.90;38.60
10300;DHT22;5195;48.562;9.192;2024-03-25T09:31:18;14.90;39.10
10300;DHT22;5195;48.562;9.192;2024-03-25T09:33:55;14.90;39.90
10300;DHT22;5195;48.562;9.192;2024-03-25T09:36:31;15.10;37.10
10300;DHT22;5195;48.562;9.192;2024-03-25T09:39:06;15.20;37.80
10300;DHT22;5195;48.562;9.192;2024-03-25T09:41:42;15.40;36.60
10300;DHT22;5195;48.562;9.192;2024-03-25T09:44:18;15.40;37.20
10300;DHT22;5195;48.562;9.192;2024-03-25T09:46:54;15.30;38.20
10300;DHT22;5195;48.562;9.192;2024-03-25T09:49:29;15.40;38.90
10300;DHT22;5195;48.562;9.192;2024-03-25T09:52:06;15.60;36.50
10300;DHT22;5195;48.562;9.192;2024-03-25T09:54:43;16.00;35.50
10300;DHT22;5195;48.562;9.192;2024-03-25T09:57:19;16.60;34.60
10300;DHT22;5195;48.562;9.192;2024-03-25T09:59:55;16.60;34.60
10300;DHT22;5195;48.562;9.192;2024-03-25T10:02:30;16.70;35.30
10300;DHT22;5195;48.562;9.192;2024-03-25T10:05:06;16.90;33.60
10300;DHT22;5195;48.562;9.192;2024-03-25T10:07:42;17.00;34.70
10300;DHT22;5195;48.562;9.192;2024-03-25T10:10:20;17.10;32.20
10300;DHT22;5195;48.562;9.192;2024-03-25T10:12:56;17.00;32.20
10300;DHT22;5195;48.562;9.192;2024-03-25T10:15:32;17.10;31.00
10300;DHT22;5195;48.562;9.192;2024-03-25T10:18:07;17.10;32.90
10300;DHT22;5195;48.562;9.192;2024-03-25T10:20:53;17.40;32.60
10300;DHT22;5195;48.562;9.192;2024-03-25T10:23:29;17.70;31.30
10300;DHT22;5195;48.562;9.192;2024-03-25T10:26:05;17.80;32.30
10300;DHT22;5195;48.562;9.192;2024-03-25T10:28:42;17.80;31.40
10300;DHT22;5195;48.562;9.192;2024-03-25T10:31:18;18.10;29.70
10300;DHT22;5195;48.562;9.192;2024-03-25T10:33:53;18.10;30.70
10300;DHT22;5195;48.562;9.192;2024-03-25T10:36:29;17.80;30.70
10300;DHT22;5195;48.562;9.192;2024-03-25T10:39:04;17.80;29.40
10300;DHT22;5195;48.562;9.192;2024-03-25T10:41:41;17.80;27.50
10300;DHT22;5195;48.562;9.192;2024-03-25T10:44:16;17.80;27.50
10300;DHT22;5195;48.562;9.192;2024-03-25T10:47:00;18.00;28.70
10300;DHT22;5195;48.562;9.192;2024-03-25T10:52:17;18.10;27.90
10300;DHT22;5195;48.562;9.192;2024-03-25T10:54:52;18.30;27.30
10300;DHT22;5195;48.562;9.192;2024-03-25T10:57:28;18.20;28.00
10300;DHT22;5195;48.562;9.192;2024-03-25T11:00:03;18.00;28.80
10300;DHT22;5195;48.562;9.192;2024-03-25T11:02:40;17.50;27.90
10300;DHT22;5195;48.562;9.192;2024-03-25T11:05:15;17.50;27.80
10300;DHT22;5195;48.562;9.192;2024-03-25T11:07:51;17.50;24.50
10300;DHT22;5195;48.562;9.192;2024-03-25T11:10:31;17.60;24.70
10300;DHT22;5195;48.562;9.192;2024-03-25T11:13:11;17.30;25.70
10300;DHT22;5195;48.562;9.192;2024-03-25T11:15:47;17.00;26.70
10300;DHT22;5195;48.562;9.192;2024-03-25T11:18:22;17.10;24.60
10300;DHT22;5195;48.562;9.192;2024-03-25T11:21:06;17.10;24.60
10300;DHT22;5195;48.562;9.192;2024-03-25T11:23:41;17.20;24.50
10300;DHT22;5195;48.562;9.192;2024-03-25T11:28:56;17.30;24.90
10300;DHT22;5195;48.562;9.192;2024-03-25T11:31:32;17.30;25.80
10300;DHT22;5195;48.562;9.192;2024-03-25T11:34:07;17.20;25.30
10300;DHT22;5195;48.562;9.192;2024-03-25T11:36:43;17.00;25.90
10300;DHT22;5195;48.562;9.192;2024-03-25T11:39:22;16.60;26.30
10300;DHT22;5195;48.562;9.192;2024-03-25T11:41:58;16.50;26.20
10300;DHT22;5195;48.562;9.192;2024-03-25T11:44:37;15.90;27.10
10300;DHT22;5195;48.562;9.192;2024-03-25T11:47:14;15.60;27.50
10300;DHT22;5195;48.562;9.192;2024-03-25T11:49:49;15.60;27.50
10300;DHT22;5195;48.562;9.192;2024-03-25T11:52:32;15.50;28.00
10300;DHT22;5195;48.562;9.192;2024-03-25T11:55:09;15.40;27.90
10300;DHT22;5195;48.562;9.192;2024-03-25T11:57:44;15.40;28.30
10300;DHT22;5195;48.562;9.192;2024-03-25T12:00:20;15.70;27.70
10300;DHT22;5195;48.562;9.192;2024-03-25T12:02:57;16.30;27.50
10300;DHT22;5195;48.562;9.192;2024-03-25T12:05:34;16.20;27.20
10300;DHT22;5195;48.562;9.192;2024-03-25T12:08:09;16.20;27.20
10300;DHT22;5195;48.562;9.192;2024-03-25T12:10:48;16.20;26.50
10300;DHT22;5195;48.562;9.192;2024-03-25T12:13:43;16.20;27.20
10300;DHT22;5195;48.562;9.192;2024-03-25T12:16:19;16.00;27.30
10300;DHT22;5195;48.562;9.192;2024-03-25T12:18:54;16.00;25.60
10300;DHT22;5195;48.562;9.192;2024-03-25T12:21:30;16.20;25.20
10300;DHT22;5195;48.562;9.192;2024-03-25T12:24:06;16.30;25.80
10300;DHT22;5195;48.562;9.192;2024-03-25T12:26:41;16.20;26.50
10300;DHT22;5195;48.562;9.192;2024-03-25T12:29:17;16.20;26.50
10300;DHT22;5195;48.562;9.192;2024-03-25T12:31:54;16.40;26.00
10300;DHT22;5195;48.562;9.192;2024-03-25T12:34:30;16.60;26.10
10300;DHT22;5195;48.562;9.192;2024-03-25T12:37:06;16.60;27.20
10300;DHT22;5195;48.562;9.192;2024-03-25T12:39:49;16.50;27.20
10300;DHT22;5195;48.562;9.192;2024-03-25T12:42:25;16.50;26.80
10300;DHT22;5195;48.562;9.192;2024-03-25T12:45:00;16.70;26.40
10300;DHT22;5195;48.562;9.192;2024-03-25T12:47:36;16.30;27.40
10300;DHT22;5195;48.562;9.192;2024-03-25T12:50:12;16.30;27.40
10300;DHT22;5195;48.562;9.192;2024-03-25T12:52:48;16.30;27.20
10300;DHT22;5195;48.562;9.192;2024-03-25T12:55:23;16.40;27.00
10300;DHT22;5195;48.562;9.192;2024-03-25T12:57:59;16.40;27.20
10300;DHT22;5195;48.562;9.192;2024-03-25T13:00:34;16.10;27.50
10300;DHT22;5195;48.562;9.192;2024-03-25T13:03:10;16.10;26.90
10300;DHT22;5195;48.562;9.192;2024-03-25T13:05:46;15.90;27.20
10300;DHT22;5195;48.562;9.192;2024-03-25T13:08:23;15.70;27.70
10300;DHT22;5195;48.562;9.192;2024-03-25T13:10:58;15.60;27.50
10300;DHT22;5195;48.562;9.192;2024-03-25T13:13:34;15.60;27.90
10300;DHT22;5195;48.562;9.192;2024-03-25T13:16:09;15.60;27.00
10300;DHT22;5195;48.562;9.192;2024-03-25T13:18:45;15.60;27.60
10300;DHT22;5195;48.562;9.192;2024-03-25T13:21:20;15.60;27.00
10300;DHT22;5195;48.562;9.192;2024-03-25T13:23:57;15.30;27.70
10300;DHT22;5195;48.562;9.192;2024-03-25T13:26:32;15.30;27.70
10300;DHT22;5195;48.562;9.192;2024-03-25T13:29:08;15.40;26.20
10300;DHT22;5195;48.562;9.192;2024-03-25T13:31:44;15.60;26.80
10300;DHT22;5195;48.562;9.192;2024-03-25T13:34:20;15.70;27.40
10300;DHT22;5195;48.562;9.192;2024-03-25T13:36:57;15.70;27.40
10300;DHT22;5195;48.562;9.192;2024-03-25T13:39:32;15.40;28.00
10300;DHT22;5195;48.562;9.192;2024-03-25T13:42:08;15.20;28.50
10300;DHT22;5195;48.562;9.192;2024-03-25T13:44:43;15.10;28.90
10300;DHT22;5195;48.562;9.192;2024-03-25T13:47:19;14.90;28.80
10300;DHT22;5195;48.562;9.192;2024-03-25T13:50:05;14.80;29.10
10300;DHT22;5195;48.562;9.192;2024-03-25T13:52:37;15.00;29.10
10300;DHT22;5195;48.562;9.192;2024-03-25T13:55:12;15.40;28.50
10300;DHT22;5195;48.562;9.192;2024-03-25T13:57:48;15.40;29.40
10300;DHT22;5195;48.562;9.192;2024-03-25T14:00:24;15.50;28.00
10300;DHT22;5195;48.562;9.192;2024-03-25T14:02:59;15.70;27.40
10300;DHT22;5195;48.562;9.192;2024-03-25T14:05:35;15.50;27.80
10300;DHT22;5195;48.562;9.192;2024-03-25T14:08:10;15.60;27.50
10300;DHT22;5195;48.562;9.192;2024-03-25T14:10:56;15.60;27.50
10300;DHT22;5195;48.562;9.192;2024-03-25T14:13:22;15.60;27.60
10300;DHT22;5195;48.562;9.192;2024-03-25T14:15:59;16.00;27.60
10300;DHT22;5195;48.562;9.192;2024-03-25T14:18:34;16.00;27.60
10300;DHT22;5195;48.562;9.192;2024-03-25T14:21:10;16.10;27.00
10300;DHT22;5195;48.562;9.192;2024-03-25T14:23:45;16.10;27.30
10300;DHT22;5195;48.562;9.192;2024-03-25T14:26:22;16.20;28.30
10300;DHT22;5195;48.562;9.192;2024-03-25T14:28:58;16.20;26.80
10300;DHT22;5195;48.562;9.192;2024-03-25T14:31:34;16.20;26.70
10300;DHT22;5195;48.562;9.192;2024-03-25T14:34:09;16.20;27.30
10300;DHT22;5195;48.562;9.192;2024-03-25T14:36:45;16.00;27.70
10300;DHT22;5195;48.562;9.192;2024-03-25T14:39:21;15.60;27.40
10300;DHT22;5195;48.562;9.192;2024-03-25T14:41:57;15.50;27.30
10300;DHT22;5195;48.562;9.192;2024-03-25T14:44:33;15.80;27.20
10300;DHT22;5195;48.562;9.192;2024-03-25T14:47:10;15.80;27.20
10300;DHT22;5195;48.562;9.192;2024-03-25T14:49:46;15.40;28.10
10300;DHT22;5195;48.562;9.192;2024-03-25T14:52:22;15.30;28.00
10300;DHT22;5195;48.562;9.192;2024-03-25T14:54:58;15.60;27.00
10300;DHT22;5195;48.562;9.192;2024-03-25T14:57:34;15.60;27.00
10300;DHT22;5195;48.562;9.192;2024-03-25T15:00:10;15.50;26.60
10300;DHT22;5195;48.562;9.192;2024-03-25T15:02:45;15.30;26.50
10300;DHT22;5195;48.562;9.192;2024-03-25T15:05:21;15.30;24.50
10300;DHT22;5195;48.562;9.192;2024-03-25T15:07:58;15.50;24.90
10300;DHT22;5195;48.562;9.192;2024-03-25T15:10:34;15.40;25.50
10300;DHT22;5195;48.562;9.192;2024-03-25T15:13:09;15.40;24.60
10300;DHT22;5195;48.562;9.192;2024-03-25T15:15:45;15.70;25.50
10300;DHT22;5195;48.562;9.192;2024-03-25T15:18:20;15.80;25.70
10300;DHT22;5195;48.562;9.192;2024-03-25T15:21:00;15.60;25.50
10300;DHT22;5195;48.562;9.192;2024-03-25T15:23:36;15.80;25.50
10300;DHT22;5195;48.562;9.192;2024-03-25T15:26:12;15.80;25.50
10300;DHT22;5195;48.562;9.192;2024-03-25T15:28:48;15.90;23.30
10300;DHT22;5195;48.562;9.192;2024-03-25T15:31:24;15.90;23.30
10300;DHT22;5195;48.562;9.192;2024-03-25T15:34:00;15.60;23.20
10300;DHT22;5195;48.562;9.192;2024-03-25T15:36:35;15.60;23.20
10300;DHT22;5195;48.562;9.192;2024-03-25T15:39:11;15.70;23.50
10300;DHT22;5195;48.562;9.192;2024-03-25T15:41:47;15.80;23.50
10300;DHT22;5195;48.562;9.192;2024-03-25T15:44:23;15.60;24.40
10300;DHT22;5195;48.562;9.192;2024-03-25T15:46:59;15.50;23.80
10300;DHT22;5195;48.562;9.192;2024-03-25T15:49:34;15.40;24.30
10300;DHT22;5195;48.562;9.192;2024-03-25T15:52:11;14.80;25.40
10300;DHT22;5195;48.562;9.192;2024-03-25T15:54:46;14.70;25.70
10300;DHT22;5195;48.562;9.192;2024-03-25T15:57:22;14.50;25.60
10300;DHT22;5195;48.562;9.192;2024-03-25T15:59:57;14.30;26.00
10300;DHT22;5195;48.562;9.192;2024-03-25T16:02:33;14.20;26.20
10300;DHT22;5195;48.562;9.192;2024-03-25T16:05:08;14.30;25.20
10300;DHT22;5195;48.562;9.192;2024-03-25T16:07:44;14.30;25.50
10300;DHT22;5195;48.562;9.192;2024-03-25T16:10:23;14.50;25.20
10300;DHT22;5195;48.562;9.192;2024-03-25T16:12:59;14.80;24.90
10300;DHT22;5195;48.562;9.192;2024-03-25T16:15:34;14.60;25.10
10300;DHT22;5195;48.562;9.192;2024-03-25T16:18:10;14.70;24.90
10300;DHT22;5195;48.562;9.192;2024-03-25T16:20:45;14.60;25.10
10300;DHT22;5195;48.562;9.192;2024-03-25T16:23:21;14.60;24.60
10300;DHT22;5195;48.562;9.192;2024-03-25T16:25:57;14.70;24.90
10300;DHT22;5195;48.562;9.192;2024-03-25T16:28:33;14.60;24.90
10300;DHT22;5195;48.562;9.192;2024-03-25T16:31:08;14.40;25.40
10300;DHT22;5195;48.562;9.192;2024-03-25T16:33:44;14.10;25.70
10300;DHT22;5195;48.562;9.192;2024-03-25T16:36:20;14.20;25.00
10300;DHT22;5195;48.562;9.192;2024-03-25T16:38:57;14.10;25.30
10300;DHT22;5195;48.562;9.192;2024-03-25T16:41:33;14.20;25.20
10300;DHT22;5195;48.562;9.192;2024-03-25T16:44:09;14.30;25.50
10300;DHT22;5195;48.562;9.192;2024-03-25T16:46:45;14.30;25.50
10300;DHT22;5195;48.562;9.192;2024-03-25T16:49:20;14.00;25.90
10300;DHT22;5195;48.562;9.192;2024-03-25T16:51:56;13.80;26.10